< < Back
Terminal Aerodrome Forecast


Current Version              Previous Versions:   1  2  3  4  5  6  7  8  9  

Terminal Aerodrome Forecast

072
FTAK31 PAJN 222300
TAFAHN
TAF
PAHN 222320Z 2300/2324 12008KT P6SM FEW080
     FM230900 09007KT P6SM BKN080
     FM232100 11012KT P6SM VCSH SCT050 OVC080
      AMD LTD TO CLD VIS AND WIND=

Latest METAR

061
SAUS70 KWBC 222254
MTRAHN
METAR KAHN 222251Z 06005KT 9SM CLR 29/22 A3007 RMK AO2 SLP176
T02890217


USA.gov is the U.S. government's official web portal to all federal, state and local government web resources and services.